Smithtown, New York
Current Conditions -  °F | °C
As of 4:56 AM on Friday 19 Dec 2014 (Local Time) from KISP Reporting Station
Overcast Overcast  
Wind Chill: 30°   Ceiling: 3800
Heat Index: 36°   Visibility: 10mi
Dew Point: 26°   Wind: 8mph
Humidity: 67%   Direction: 300°WNW
Pressure: 29.94"   Gusts: NA
Location:  40.85°N, 73.23°W
Report Text: KISP 190956Z AUTO 30007KT 10SM BKN038 OVC050 02/M03 A2994 RMK AO2 SLP139 T00221033
Loading
Personal Weather Stations






























Interactive Weather Map New forecast layout! Learn more

10-Day Weather Forecast

Advertisements
Track Severe Weather on mobile